sensor_id;sensor_type;location;lat;lon;timestamp;temperature;humidity
16102;DHT22;56411;52.964;10.540;2023-06-22T00:02:22;16.80;99.90
16102;DHT22;56411;52.964;10.540;2023-06-22T00:04:49;16.80;99.90
16102;DHT22;56411;52.964;10.540;2023-06-22T00:07:16;16.70;99.90
16102;DHT22;56411;52.964;10.540;2023-06-22T00:09:44;16.60;99.90
16102;DHT22;56411;52.964;10.540;2023-06-22T00:12:11;16.60;99.90
16102;DHT22;56411;52.964;10.540;2023-06-22T00:14:38;16.50;99.90
16102;DHT22;56411;52.964;10.540;2023-06-22T00:17:05;16.60;99.90
16102;DHT22;56411;52.964;10.540;2023-06-22T00:19:32;16.50;99.90
16102;DHT22;56411;52.964;10.540;2023-06-22T00:22:01;16.50;99.90
16102;DHT22;56411;52.964;10.540;2023-06-22T00:24:29;16.70;99.90
16102;DHT22;56411;52.964;10.540;2023-06-22T00:26:57;16.80;99.90
16102;DHT22;56411;52.964;10.540;2023-06-22T00:29:24;16.70;99.90
16102;DHT22;56411;52.964;10.540;2023-06-22T00:31:52;16.50;99.90
16102;DHT22;56411;52.964;10.540;2023-06-22T00:34:19;16.40;99.90
16102;DHT22;56411;52.964;10.540;2023-06-22T00:36:46;16.40;99.90
16102;DHT22;56411;52.964;10.540;2023-06-22T00:39:13;16.30;99.90
16102;DHT22;56411;52.964;10.540;2023-06-22T00:41:40;16.20;99.90
16102;DHT22;56411;52.964;10.540;2023-06-22T00:44:09;16.20;99.90
16102;DHT22;56411;52.964;10.540;2023-06-22T00:46:36;16.20;99.90
16102;DHT22;56411;52.964;10.540;2023-06-22T00:49:03;16.20;99.90
16102;DHT22;56411;52.964;10.540;2023-06-22T00:51:31;16.20;99.90
16102;DHT22;56411;52.964;10.540;2023-06-22T00:53:59;16.10;99.90
16102;DHT22;56411;52.964;10.540;2023-06-22T00:56:26;16.30;99.90
16102;DHT22;56411;52.964;10.540;2023-06-22T00:58:55;16.30;99.90
16102;DHT22;56411;52.964;10.540;2023-06-22T01:01:25;16.30;99.90
16102;DHT22;56411;52.964;10.540;2023-06-22T01:03:52;16.20;99.90
16102;DHT22;56411;52.964;10.540;2023-06-22T01:06:29;16.10;99.90
16102;DHT22;56411;52.964;10.540;2023-06-22T01:09:02;16.10;99.90
16102;DHT22;56411;52.964;10.540;2023-06-22T01:11:36;16.20;99.90
16102;DHT22;56411;52.964;10.540;2023-06-22T01:14:09;16.30;99.90
16102;DHT22;56411;52.964;10.540;2023-06-22T01:16:41;16.30;99.90
16102;DHT22;56411;52.964;10.540;2023-06-22T01:19:34;16.40;99.90
16102;DHT22;56411;52.964;10.540;2023-06-22T01:22:03;16.50;99.90
16102;DHT22;56411;52.964;10.540;2023-06-22T01:24:33;16.50;99.90
16102;DHT22;56411;52.964;10.540;2023-06-22T01:27:18;16.50;99.90
16102;DHT22;56411;52.964;10.540;2023-06-22T01:29:51;16.40;99.90
16102;DHT22;56411;52.964;10.540;2023-06-22T01:32:18;16.20;99.90
16102;DHT22;56411;52.964;10.540;2023-06-22T01:34:46;16.00;99.90
16102;DHT22;56411;52.964;10.540;2023-06-22T01:37:15;15.90;99.90
16102;DHT22;56411;52.964;10.540;2023-06-22T01:39:42;15.80;99.90
16102;DHT22;56411;52.964;10.540;2023-06-22T01:42:10;15.70;99.90
16102;DHT22;56411;52.964;10.540;2023-06-22T01:44:37;15.80;99.90
16102;DHT22;56411;52.964;10.540;2023-06-22T01:47:07;15.80;99.90
16102;DHT22;56411;52.964;10.540;2023-06-22T01:49:34;15.70;99.90
16102;DHT22;56411;52.964;10.540;2023-06-22T01:52:01;15.60;99.90
16102;DHT22;56411;52.964;10.540;2023-06-22T01:54:29;15.60;99.90
16102;DHT22;56411;52.964;10.540;2023-06-22T01:56:57;15.60;99.90
16102;DHT22;56411;52.964;10.540;2023-06-22T01:59:26;15.60;99.90
16102;DHT22;56411;52.964;10.540;2023-06-22T02:02:01;15.70;99.90
16102;DHT22;56411;52.964;10.540;2023-06-22T02:04:34;15.80;99.90
16102;DHT22;56411;52.964;10.540;2023-06-22T02:07:05;15.70;99.90
16102;DHT22;56411;52.964;10.540;2023-06-22T02:09:34;15.60;99.90
16102;DHT22;56411;52.964;10.540;2023-06-22T02:12:02;15.50;99.90
16102;DHT22;56411;52.964;10.540;2023-06-22T02:14:31;15.40;99.90
16102;DHT22;56411;52.964;10.540;2023-06-22T02:16:59;15.40;99.90
16102;DHT22;56411;52.964;10.540;2023-06-22T02:19:27;15.40;99.90
16102;DHT22;56411;52.964;10.540;2023-06-22T02:22:00;15.40;99.90
16102;DHT22;56411;52.964;10.540;2023-06-22T02:24:27;15.40;99.90
16102;DHT22;56411;52.964;10.540;2023-06-22T02:26:58;15.40;99.90
16102;DHT22;56411;52.964;10.540;2023-06-22T02:29:26;15.40;99.90
16102;DHT22;56411;52.964;10.540;2023-06-22T02:31:53;15.40;99.90
16102;DHT22;56411;52.964;10.540;2023-06-22T02:34:21;15.40;99.90
16102;DHT22;56411;52.964;10.540;2023-06-22T02:36:49;15.40;99.90
16102;DHT22;56411;52.964;10.540;2023-06-22T02:39:19;15.60;99.90
16102;DHT22;56411;52.964;10.540;2023-06-22T02:41:48;15.70;99.90
16102;DHT22;56411;52.964;10.540;2023-06-22T02:44:15;15.70;99.90
16102;DHT22;56411;52.964;10.540;2023-06-22T02:46:43;15.60;99.90
16102;DHT22;56411;52.964;10.540;2023-06-22T02:49:10;15.50;99.90
16102;DHT22;56411;52.964;10.540;2023-06-22T02:51:39;15.40;99.90
16102;DHT22;56411;52.964;10.540;2023-06-22T02:54:06;15.40;99.90
16102;DHT22;56411;52.964;10.540;2023-06-22T02:56:34;15.50;99.90
16102;DHT22;56411;52.964;10.540;2023-06-22T02:59:02;15.60;99.90
16102;DHT22;56411;52.964;10.540;2023-06-22T03:01:30;15.60;99.90
16102;DHT22;56411;52.964;10.540;2023-06-22T03:04:03;15.60;99.90
16102;DHT22;56411;52.964;10.540;2023-06-22T03:06:30;15.50;99.90
16102;DHT22;56411;52.964;10.540;2023-06-22T03:08:59;15.50;99.90
16102;DHT22;56411;52.964;10.540;2023-06-22T03:11:26;15.40;99.90
16102;DHT22;56411;52.964;10.540;2023-06-22T03:13:55;15.40;99.90
16102;DHT22;56411;52.964;10.540;2023-06-22T03:16:22;15.40;99.90
16102;DHT22;56411;52.964;10.540;2023-06-22T03:18:49;15.50;99.90
16102;DHT22;56411;52.964;10.540;2023-06-22T03:21:16;15.50;99.90
16102;DHT22;56411;52.964;10.540;2023-06-22T03:23:43;15.40;99.90
16102;DHT22;56411;52.964;10.540;2023-06-22T03:26:10;15.40;99.90
16102;DHT22;56411;52.964;10.540;2023-06-22T03:28:38;15.50;99.90
16102;DHT22;56411;52.964;10.540;2023-06-22T03:31:09;15.50;99.90
16102;DHT22;56411;52.964;10.540;2023-06-22T03:33:36;15.60;99.90
16102;DHT22;56411;52.964;10.540;2023-06-22T03:36:03;15.60;99.90
16102;DHT22;56411;52.964;10.540;2023-06-22T03:38:30;15.70;99.90
16102;DHT22;56411;52.964;10.540;2023-06-22T03:40:58;15.80;99.90
16102;DHT22;56411;52.964;10.540;2023-06-22T03:43:25;15.90;99.90
16102;DHT22;56411;52.964;10.540;2023-06-22T03:45:52;15.90;99.90
16102;DHT22;56411;52.964;10.540;2023-06-22T03:48:21;15.90;99.90
16102;DHT22;56411;52.964;10.540;2023-06-22T03:50:48;16.00;99.90
16102;DHT22;56411;52.964;10.540;2023-06-22T03:53:15;16.00;99.90
16102;DHT22;56411;52.964;10.540;2023-06-22T03:55:50;16.00;99.90
16102;DHT22;56411;52.964;10.540;2023-06-22T03:58:18;16.10;99.90
16102;DHT22;56411;52.964;10.540;2023-06-22T04:00:46;16.20;99.90
16102;DHT22;56411;52.964;10.540;2023-06-22T04:03:13;16.20;99.90
16102;DHT22;56411;52.964;10.540;2023-06-22T04:05:42;16.20;99.90
16102;DHT22;56411;52.964;10.540;2023-06-22T04:08:10;16.20;99.90
16102;DHT22;56411;52.964;10.540;2023-06-22T04:10:38;16.20;99.90
16102;DHT22;56411;52.964;10.540;2023-06-22T04:13:04;16.20;99.90
16102;DHT22;56411;52.964;10.540;2023-06-22T04:15:33;16.20;99.90
16102;DHT22;56411;52.964;10.540;2023-06-22T04:18:04;16.20;99.90
16102;DHT22;56411;52.964;10.540;2023-06-22T04:20:31;16.20;99.90
16102;DHT22;56411;52.964;10.540;2023-06-22T04:23:00;16.30;99.90
16102;DHT22;56411;52.964;10.540;2023-06-22T04:25:27;16.30;99.90
16102;DHT22;56411;52.964;10.540;2023-06-22T04:27:54;16.30;99.90
16102;DHT22;56411;52.964;10.540;2023-06-22T04:30:21;16.30;99.90
16102;DHT22;56411;52.964;10.540;2023-06-22T04:32:48;16.40;99.90
16102;DHT22;56411;52.964;10.540;2023-06-22T04:35:21;16.50;99.90
16102;DHT22;56411;52.964;10.540;2023-06-22T04:37:49;16.60;99.90
16102;DHT22;56411;52.964;10.540;2023-06-22T04:40:22;16.60;99.90
16102;DHT22;56411;52.964;10.540;2023-06-22T04:42:49;16.80;99.90
16102;DHT22;56411;52.964;10.540;2023-06-22T04:45:22;16.90;99.90
16102;DHT22;56411;52.964;10.540;2023-06-22T04:47:49;17.00;99.90
16102;DHT22;56411;52.964;10.540;2023-06-22T04:50:16;17.10;99.90
16102;DHT22;56411;52.964;10.540;2023-06-22T04:52:46;17.30;99.90
16102;DHT22;56411;52.964;10.540;2023-06-22T04:55:14;17.40;99.90
16102;DHT22;56411;52.964;10.540;2023-06-22T04:57:47;17.50;99.90
16102;DHT22;56411;52.964;10.540;2023-06-22T05:00:16;17.70;99.90
16102;DHT22;56411;52.964;10.540;2023-06-22T05:02:44;17.80;99.90
16102;DHT22;56411;52.964;10.540;2023-06-22T05:05:12;18.00;99.90
16102;DHT22;56411;52.964;10.540;2023-06-22T05:07:41;18.10;99.90
16102;DHT22;56411;52.964;10.540;2023-06-22T05:10:10;18.20;99.90
16102;DHT22;56411;52.964;10.540;2023-06-22T05:12:38;18.30;99.90
16102;DHT22;56411;52.964;10.540;2023-06-22T05:15:08;18.40;99.90
16102;DHT22;56411;52.964;10.540;2023-06-22T05:17:36;18.50;99.90
16102;DHT22;56411;52.964;10.540;2023-06-22T05:20:09;18.60;99.90
16102;DHT22;56411;52.964;10.540;2023-06-22T05:22:37;18.60;99.90
16102;DHT22;56411;52.964;10.540;2023-06-22T05:25:07;18.70;99.90
16102;DHT22;56411;52.964;10.540;2023-06-22T05:27:34;18.70;99.90
16102;DHT22;56411;52.964;10.540;2023-06-22T05:30:07;18.70;99.90
16102;DHT22;56411;52.964;10.540;2023-06-22T05:32:37;18.60;99.90
16102;DHT22;56411;52.964;10.540;2023-06-22T05:35:04;18.60;99.90
16102;DHT22;56411;52.964;10.540;2023-06-22T05:37:31;18.60;99.90
16102;DHT22;56411;52.964;10.540;2023-06-22T05:39:58;18.50;99.90
16102;DHT22;56411;52.964;10.540;2023-06-22T05:42:25;18.50;99.90
16102;DHT22;56411;52.964;10.540;2023-06-22T05:44:53;18.50;99.90
16102;DHT22;56411;52.964;10.540;2023-06-22T05:47:22;18.50;99.90
16102;DHT22;56411;52.964;10.540;2023-06-22T05:49:49;18.50;99.90
16102;DHT22;56411;52.964;10.540;2023-06-22T05:52:16;18.60;99.90
16102;DHT22;56411;52.964;10.540;2023-06-22T05:54:43;18.70;99.90
16102;DHT22;56411;52.964;10.540;2023-06-22T05:57:10;18.80;99.90
16102;DHT22;56411;52.964;10.540;2023-06-22T05:59:37;18.90;99.90
16102;DHT22;56411;52.964;10.540;2023-06-22T06:02:05;19.00;99.90
16102;DHT22;56411;52.964;10.540;2023-06-22T06:04:33;19.20;99.90
16102;DHT22;56411;52.964;10.540;2023-06-22T06:07:01;19.40;99.90
16102;DHT22;56411;52.964;10.540;2023-06-22T06:09:28;19.50;99.90
16102;DHT22;56411;52.964;10.540;2023-06-22T06:11:55;19.60;99.90
16102;DHT22;56411;52.964;10.540;2023-06-22T06:14:22;19.80;99.90
16102;DHT22;56411;52.964;10.540;2023-06-22T06:16:49;19.90;99.90
16102;DHT22;56411;52.964;10.540;2023-06-22T06:19:16;20.00;99.90
16102;DHT22;56411;52.964;10.540;2023-06-22T06:21:45;20.10;99.90
16102;DHT22;56411;52.964;10.540;2023-06-22T06:24:12;20.20;99.90
16102;DHT22;56411;52.964;10.540;2023-06-22T06:26:40;20.20;99.90
16102;DHT22;56411;52.964;10.540;2023-06-22T06:29:07;20.30;99.90
16102;DHT22;56411;52.964;10.540;2023-06-22T06:31:34;20.40;99.90
16102;DHT22;56411;52.964;10.540;2023-06-22T06:34:01;20.50;99.90
16102;DHT22;56411;52.964;10.540;2023-06-22T06:36:29;20.60;99.90
16102;DHT22;56411;52.964;10.540;2023-06-22T06:38:58;20.70;99.90
16102;DHT22;56411;52.964;10.540;2023-06-22T06:41:25;20.90;99.90
16102;DHT22;56411;52.964;10.540;2023-06-22T06:43:52;21.00;99.90
16102;DHT22;56411;52.964;10.540;2023-06-22T06:46:19;21.10;99.90
16102;DHT22;56411;52.964;10.540;2023-06-22T06:48:46;21.10;99.90
16102;DHT22;56411;52.964;10.540;2023-06-22T06:51:13;21.20;99.90
16102;DHT22;56411;52.964;10.540;2023-06-22T06:53:41;21.40;99.90
16102;DHT22;56411;52.964;10.540;2023-06-22T06:56:10;21.50;99.90
16102;DHT22;56411;52.964;10.540;2023-06-22T06:58:38;21.60;99.90
16102;DHT22;56411;52.964;10.540;2023-06-22T07:01:05;21.70;99.90
16102;DHT22;56411;52.964;10.540;2023-06-22T07:03:32;21.80;99.90
16102;DHT22;56411;52.964;10.540;2023-06-22T07:06:00;21.90;99.90
16102;DHT22;56411;52.964;10.540;2023-06-22T07:08:27;21.90;99.90
16102;DHT22;56411;52.964;10.540;2023-06-22T07:10:54;22.00;99.90
16102;DHT22;56411;52.964;10.540;2023-06-22T07:13:22;22.10;99.90
16102;DHT22;56411;52.964;10.540;2023-06-22T07:15:49;22.10;99.90
16102;DHT22;56411;52.964;10.540;2023-06-22T07:18:16;22.20;99.90
16102;DHT22;56411;52.964;10.540;2023-06-22T07:20:44;22.30;99.90
16102;DHT22;56411;52.964;10.540;2023-06-22T07:23:11;22.30;99.90
16102;DHT22;56411;52.964;10.540;2023-06-22T07:25:38;22.30;99.90
16102;DHT22;56411;52.964;10.540;2023-06-22T07:28:07;22.40;99.90
16102;DHT22;56411;52.964;10.540;2023-06-22T07:30:35;22.50;99.90
16102;DHT22;56411;52.964;10.540;2023-06-22T07:33:02;22.60;99.90
16102;DHT22;56411;52.964;10.540;2023-06-22T07:35:31;22.70;99.90
16102;DHT22;56411;52.964;10.540;2023-06-22T07:37:59;22.80;99.90
16102;DHT22;56411;52.964;10.540;2023-06-22T07:40:26;22.90;99.90
16102;DHT22;56411;52.964;10.540;2023-06-22T07:42:53;23.00;99.90
16102;DHT22;56411;52.964;10.540;2023-06-22T07:45:21;23.00;99.90
16102;DHT22;56411;52.964;10.540;2023-06-22T07:47:50;23.10;99.90
16102;DHT22;56411;52.964;10.540;2023-06-22T07:50:17;23.20;99.90
16102;DHT22;56411;52.964;10.540;2023-06-22T07:52:44;23.30;99.90
16102;DHT22;56411;52.964;10.540;2023-06-22T07:55:13;23.20;99.90
16102;DHT22;56411;52.964;10.540;2023-06-22T07:57:40;23.40;99.90
16102;DHT22;56411;52.964;10.540;2023-06-22T08:00:08;23.40;99.90
16102;DHT22;56411;52.964;10.540;2023-06-22T08:02:38;23.50;99.90
16102;DHT22;56411;52.964;10.540;2023-06-22T08:05:07;23.50;99.90
16102;DHT22;56411;52.964;10.540;2023-06-22T08:07:35;23.60;99.90
16102;DHT22;56411;52.964;10.540;2023-06-22T08:10:03;23.80;99.90
16102;DHT22;56411;52.964;10.540;2023-06-22T08:12:30;24.00;99.90
16102;DHT22;56411;52.964;10.540;2023-06-22T08:14:57;24.10;99.90
16102;DHT22;56411;52.964;10.540;2023-06-22T08:17:24;24.30;99.90
16102;DHT22;56411;52.964;10.540;2023-06-22T08:19:52;24.40;99.90
16102;DHT22;56411;52.964;10.540;2023-06-22T08:22:20;24.40;99.90
16102;DHT22;56411;52.964;10.540;2023-06-22T08:24:47;24.50;99.90
16102;DHT22;56411;52.964;10.540;2023-06-22T08:27:15;24.60;99.90
16102;DHT22;56411;52.964;10.540;2023-06-22T08:29:44;24.70;99.90
16102;DHT22;56411;52.964;10.540;2023-06-22T08:32:12;24.80;99.90
16102;DHT22;56411;52.964;10.540;2023-06-22T08:34:39;24.70;99.90
16102;DHT22;56411;52.964;10.540;2023-06-22T08:37:08;24.80;99.90
16102;DHT22;56411;52.964;10.540;2023-06-22T08:39:36;24.90;99.90
16102;DHT22;56411;52.964;10.540;2023-06-22T08:42:04;25.00;99.90
16102;DHT22;56411;52.964;10.540;2023-06-22T08:44:32;25.00;99.90
16102;DHT22;56411;52.964;10.540;2023-06-22T08:46:59;25.00;99.90
16102;DHT22;56411;52.964;10.540;2023-06-22T08:49:26;25.00;99.90
16102;DHT22;56411;52.964;10.540;2023-06-22T08:51:53;25.00;99.90
16102;DHT22;56411;52.964;10.540;2023-06-22T08:54:22;25.00;99.90
16102;DHT22;56411;52.964;10.540;2023-06-22T08:56:50;25.20;99.90
16102;DHT22;56411;52.964;10.540;2023-06-22T08:59:17;25.20;99.90
16102;DHT22;56411;52.964;10.540;2023-06-22T09:01:45;25.20;99.90
16102;DHT22;56411;52.964;10.540;2023-06-22T09:04:14;25.40;99.90
16102;DHT22;56411;52.964;10.540;2023-06-22T09:06:41;25.60;99.90
16102;DHT22;56411;52.964;10.540;2023-06-22T09:09:10;25.70;99.90
16102;DHT22;56411;52.964;10.540;2023-06-22T09:11:38;25.60;99.90
16102;DHT22;56411;52.964;10.540;2023-06-22T09:14:06;25.60;99.90
16102;DHT22;56411;52.964;10.540;2023-06-22T09:16:34;25.80;99.90
16102;DHT22;56411;52.964;10.540;2023-06-22T09:19:01;25.90;99.90
16102;DHT22;56411;52.964;10.540;2023-06-22T09:21:28;26.10;99.90
16102;DHT22;56411;52.964;10.540;2023-06-22T09:23:56;26.20;99.90
16102;DHT22;56411;52.964;10.540;2023-06-22T09:26:23;26.20;99.90
16102;DHT22;56411;52.964;10.540;2023-06-22T09:28:51;26.30;99.90
16102;DHT22;56411;52.964;10.540;2023-06-22T09:31:20;26.20;99.90
16102;DHT22;56411;52.964;10.540;2023-06-22T09:33:51;26.30;99.90
16102;DHT22;56411;52.964;10.540;2023-06-22T09:36:19;26.30;99.90
16102;DHT22;56411;52.964;10.540;2023-06-22T09:38:48;26.30;99.90
16102;DHT22;56411;52.964;10.540;2023-06-22T09:41:21;26.20;99.90
16102;DHT22;56411;52.964;10.540;2023-06-22T09:43:48;26.30;99.90
16102;DHT22;56411;52.964;10.540;2023-06-22T09:46:15;26.20;99.90
16102;DHT22;56411;52.964;10.540;2023-06-22T09:48:44;26.40;99.90
16102;DHT22;56411;52.964;10.540;2023-06-22T09:51:11;26.30;99.90
16102;DHT22;56411;52.964;10.540;2023-06-22T09:53:38;26.40;99.90
16102;DHT22;56411;52.964;10.540;2023-06-22T09:56:06;26.70;99.90
16102;DHT22;56411;52.964;10.540;2023-06-22T09:58:36;26.90;99.90
16102;DHT22;56411;52.964;10.540;2023-06-22T10:01:03;27.00;99.90
16102;DHT22;56411;52.964;10.540;2023-06-22T10:03:30;27.00;99.90
16102;DHT22;56411;52.964;10.540;2023-06-22T10:05:59;27.00;99.90
16102;DHT22;56411;52.964;10.540;2023-06-22T10:08:26;27.20;99.90
16102;DHT22;56411;52.964;10.540;2023-06-22T10:10:53;27.40;99.90
16102;DHT22;56411;52.964;10.540;2023-06-22T10:13:20;27.70;99.90
16102;DHT22;56411;52.964;10.540;2023-06-22T10:15:47;27.70;99.90
16102;DHT22;56411;52.964;10.540;2023-06-22T10:18:17;27.90;99.90
16102;DHT22;56411;52.964;10.540;2023-06-22T10:20:44;28.10;99.90
16102;DHT22;56411;52.964;10.540;2023-06-22T10:23:13;28.30;99.90
16102;DHT22;56411;52.964;10.540;2023-06-22T10:25:40;28.40;99.90
16102;DHT22;56411;52.964;10.540;2023-06-22T10:28:07;28.60;99.90
16102;DHT22;56411;52.964;10.540;2023-06-22T10:30:34;28.70;99.90
16102;DHT22;56411;52.964;10.540;2023-06-22T10:33:01;29.10;99.90
16102;DHT22;56411;52.964;10.540;2023-06-22T10:35:28;29.60;99.90
16102;DHT22;56411;52.964;10.540;2023-06-22T10:37:55;29.80;99.90
16102;DHT22;56411;52.964;10.540;2023-06-22T10:40:24;30.00;99.90
16102;DHT22;56411;52.964;10.540;2023-06-22T10:42:51;30.20;99.90
16102;DHT22;56411;52.964;10.540;2023-06-22T10:45:18;30.40;99.90
16102;DHT22;56411;52.964;10.540;2023-06-22T10:47:45;30.70;99.90
16102;DHT22;56411;52.964;10.540;2023-06-22T10:50:12;30.50;99.90
16102;DHT22;56411;52.964;10.540;2023-06-22T10:52:39;30.60;99.90
16102;DHT22;56411;52.964;10.540;2023-06-22T10:55:07;30.80;99.90
16102;DHT22;56411;52.964;10.540;2023-06-22T10:57:36;30.80;99.90
16102;DHT22;56411;52.964;10.540;2023-06-22T11:00:05;30.90;99.90
16102;DHT22;56411;52.964;10.540;2023-06-22T11:02:34;30.80;99.90
16102;DHT22;56411;52.964;10.540;2023-06-22T11:05:01;31.00;99.90
16102;DHT22;56411;52.964;10.540;2023-06-22T11:07:29;31.00;99.90
16102;DHT22;56411;52.964;10.540;2023-06-22T11:09:56;30.60;99.90
16102;DHT22;56411;52.964;10.540;2023-06-22T11:12:23;30.20;99.90
16102;DHT22;56411;52.964;10.540;2023-06-22T11:14:52;29.40;99.90
16102;DHT22;56411;52.964;10.540;2023-06-22T11:17:19;28.90;99.90
16102;DHT22;56411;52.964;10.540;2023-06-22T11:19:46;28.80;99.90
16102;DHT22;56411;52.964;10.540;2023-06-22T11:22:13;28.80;99.90
16102;DHT22;56411;52.964;10.540;2023-06-22T11:24:40;28.90;99.90
16102;DHT22;56411;52.964;10.540;2023-06-22T11:27:07;28.70;99.90
16102;DHT22;56411;52.964;10.540;2023-06-22T11:29:34;28.60;99.90
16102;DHT22;56411;52.964;10.540;2023-06-22T11:32:03;28.50;99.90
16102;DHT22;56411;52.964;10.540;2023-06-22T11:34:30;28.30;99.90
16102;DHT22;56411;52.964;10.540;2023-06-22T11:36:58;28.10;99.90
16102;DHT22;56411;52.964;10.540;2023-06-22T11:39:25;28.00;99.90
16102;DHT22;56411;52.964;10.540;2023-06-22T11:41:52;27.90;99.90
16102;DHT22;56411;52.964;10.540;2023-06-22T11:44:19;27.70;99.90
16102;DHT22;56411;52.964;10.540;2023-06-22T11:46:46;27.60;99.90
16102;DHT22;56411;52.964;10.540;2023-06-22T11:49:15;27.40;99.90
16102;DHT22;56411;52.964;10.540;2023-06-22T11:51:42;27.40;99.90
16102;DHT22;56411;52.964;10.540;2023-06-22T11:54:09;27.30;99.90
16102;DHT22;56411;52.964;10.540;2023-06-22T11:56:36;27.20;99.90
16102;DHT22;56411;52.964;10.540;2023-06-22T11:59:03;27.10;99.90
16102;DHT22;56411;52.964;10.540;2023-06-22T12:01:30;27.10;99.90
16102;DHT22;56411;52.964;10.540;2023-06-22T12:03:59;27.00;99.90
16102;DHT22;56411;52.964;10.540;2023-06-22T12:06:27;27.00;99.90
16102;DHT22;56411;52.964;10.540;2023-06-22T12:08:54;27.00;99.90
16102;DHT22;56411;52.964;10.540;2023-06-22T12:11:21;27.10;99.90
16102;DHT22;56411;52.964;10.540;2023-06-22T12:13:48;27.30;99.90
16102;DHT22;56411;52.964;10.540;2023-06-22T12:16:15;27.40;99.90
16102;DHT22;56411;52.964;10.540;2023-06-22T12:18:42;27.60;99.90
16102;DHT22;56411;52.964;10.540;2023-06-22T12:21:09;27.90;99.90
16102;DHT22;56411;52.964;10.540;2023-06-22T12:23:38;28.10;99.90
16102;DHT22;56411;52.964;10.540;2023-06-22T12:26:05;28.20;99.90
16102;DHT22;56411;52.964;10.540;2023-06-22T12:28:32;28.30;99.90
16102;DHT22;56411;52.964;10.540;2023-06-22T12:30:59;28.30;99.90
16102;DHT22;56411;52.964;10.540;2023-06-22T12:33:26;28.30;99.90
16102;DHT22;56411;52.964;10.540;2023-06-22T12:35:53;28.30;99.90
16102;DHT22;56411;52.964;10.540;2023-06-22T12:38:20;28.30;99.90
16102;DHT22;56411;52.964;10.540;2023-06-22T12:40:51;28.30;99.90
16102;DHT22;56411;52.964;10.540;2023-06-22T12:43:18;28.20;99.90
16102;DHT22;56411;52.964;10.540;2023-06-22T12:45:45;28.00;99.90
16102;DHT22;56411;52.964;10.540;2023-06-22T12:48:12;28.00;99.90
16102;DHT22;56411;52.964;10.540;2023-06-22T12:50:40;28.20;99.90
16102;DHT22;56411;52.964;10.540;2023-06-22T12:53:07;28.10;99.90
16102;DHT22;56411;52.964;10.540;2023-06-22T12:55:34;28.10;99.90
16102;DHT22;56411;52.964;10.540;2023-06-22T12:58:02;28.00;99.90
16102;DHT22;56411;52.964;10.540;2023-06-22T13:00:29;27.80;99.90
16102;DHT22;56411;52.964;10.540;2023-06-22T13:02:56;27.70;99.90
16102;DHT22;56411;52.964;10.540;2023-06-22T13:05:24;27.80;99.90
16102;DHT22;56411;52.964;10.540;2023-06-22T13:07:51;27.90;99.90
16102;DHT22;56411;52.964;10.540;2023-06-22T13:10:18;27.90;99.90
16102;DHT22;56411;52.964;10.540;2023-06-22T13:12:45;28.00;99.90
16102;DHT22;56411;52.964;10.540;2023-06-22T13:15:13;28.10;99.90
16102;DHT22;56411;52.964;10.540;2023-06-22T13:17:41;28.20;99.90
16102;DHT22;56411;52.964;10.540;2023-06-22T13:20:08;28.20;99.90
16102;DHT22;56411;52.964;10.540;2023-06-22T13:22:36;28.10;99.90
16102;DHT22;56411;52.964;10.540;2023-06-22T13:25:06;28.10;99.90
16102;DHT22;56411;52.964;10.540;2023-06-22T13:27:37;28.10;99.90
16102;DHT22;56411;52.964;10.540;2023-06-22T13:30:06;28.00;99.90
16102;DHT22;56411;52.964;10.540;2023-06-22T13:32:34;27.70;99.90
16102;DHT22;56411;52.964;10.540;2023-06-22T13:35:01;27.50;99.90
16102;DHT22;56411;52.964;10.540;2023-06-22T13:37:29;27.40;99.90
16102;DHT22;56411;52.964;10.540;2023-06-22T13:39:56;27.40;99.90
16102;DHT22;56411;52.964;10.540;2023-06-22T13:42:25;27.40;99.90
16102;DHT22;56411;52.964;10.540;2023-06-22T13:44:52;27.40;99.90
16102;DHT22;56411;52.964;10.540;2023-06-22T13:47:19;27.20;99.90
16102;DHT22;56411;52.964;10.540;2023-06-22T13:49:48;27.10;99.90
16102;DHT22;56411;52.964;10.540;2023-06-22T13:52:15;27.10;99.90
16102;DHT22;56411;52.964;10.540;2023-06-22T13:54:42;27.00;99.90
16102;DHT22;56411;52.964;10.540;2023-06-22T13:57:09;26.90;99.90
16102;DHT22;56411;52.964;10.540;2023-06-22T13:59:36;26.80;99.90
16102;DHT22;56411;52.964;10.540;2023-06-22T14:02:04;26.70;99.90
16102;DHT22;56411;52.964;10.540;2023-06-22T14:04:32;26.70;99.90
16102;DHT22;56411;52.964;10.540;2023-06-22T14:07:00;26.60;99.90
16102;DHT22;56411;52.964;10.540;2023-06-22T14:09:28;26.50;99.90
16102;DHT22;56411;52.964;10.540;2023-06-22T14:11:55;26.60;99.90
16102;DHT22;56411;52.964;10.540;2023-06-22T14:14:22;26.60;99.90
16102;DHT22;56411;52.964;10.540;2023-06-22T14:16:49;26.60;99.90
16102;DHT22;56411;52.964;10.540;2023-06-22T14:19:17;26.60;99.90
16102;DHT22;56411;52.964;10.540;2023-06-22T14:21:45;26.60;99.90
16102;DHT22;56411;52.964;10.540;2023-06-22T14:24:13;26.70;99.90
16102;DHT22;56411;52.964;10.540;2023-06-22T14:26:40;26.80;99.90
16102;DHT22;56411;52.964;10.540;2023-06-22T14:29:10;26.90;99.90
16102;DHT22;56411;52.964;10.540;2023-06-22T14:31:37;26.90;99.90
16102;DHT22;56411;52.964;10.540;2023-06-22T14:34:05;26.90;99.90
16102;DHT22;56411;52.964;10.540;2023-06-22T14:36:32;26.90;99.90
16102;DHT22;56411;52.964;10.540;2023-06-22T14:38:59;26.80;99.90
16102;DHT22;56411;52.964;10.540;2023-06-22T14:41:28;26.80;99.90
16102;DHT22;56411;52.964;10.540;2023-06-22T14:43:56;26.80;99.90
16102;DHT22;56411;52.964;10.540;2023-06-22T14:46:23;26.80;99.90
16102;DHT22;56411;52.964;10.540;2023-06-22T14:48:50;26.80;99.90
16102;DHT22;56411;52.964;10.540;2023-06-22T14:51:17;26.80;99.90
16102;DHT22;56411;52.964;10.540;2023-06-22T14:53:45;26.80;99.90
16102;DHT22;56411;52.964;10.540;2023-06-22T14:56:12;26.60;99.90
16102;DHT22;56411;52.964;10.540;2023-06-22T14:58:42;26.60;99.90
16102;DHT22;56411;52.964;10.540;2023-06-22T15:01:11;26.60;99.90
16102;DHT22;56411;52.964;10.540;2023-06-22T15:03:38;26.60;99.90
16102;DHT22;56411;52.964;10.540;2023-06-22T15:06:05;26.50;99.90
16102;DHT22;56411;52.964;10.540;2023-06-22T15:08:33;26.40;99.90
16102;DHT22;56411;52.964;10.540;2023-06-22T15:11:00;26.40;99.90
16102;DHT22;56411;52.964;10.540;2023-06-22T15:13:29;26.40;99.90
16102;DHT22;56411;52.964;10.540;2023-06-22T15:16:00;26.40;99.90
16102;DHT22;56411;52.964;10.540;2023-06-22T15:18:28;26.40;99.90
16102;DHT22;56411;52.964;10.540;2023-06-22T15:20:55;26.30;99.90